Time;durP1;ratioP1;P1;durP2;ratioP2;P2;SDS_P1;SDS_P2;PMS_P1;PMS_P2;Temp;Humidity;BMP_temperature;BMP_pressure;BME280_temperature;BME280_humidity;BME280_pressure;Samples;Min_cycle;Max_cycle;Signal;HPM_P1;HPM_P2
2022/02/08 00:01:13;;;;;;;12.35;3.38;;;8.60;99.90;;;;;;5073129;28;20212;-83
2022/02/08 00:03:39;;;;;;;13.30;2.40;;;8.50;99.90;;;;;;5072977;28;20596;-93
2022/02/08 00:06:26;;;;;;;9.30;2.33;;;8.40;99.90;;;;;;5073160;28;20538;-78
2022/02/08 00:08:52;;;;;;;17.23;3.03;;;8.30;99.90;;;;;;5073173;28;20193;-80
2022/02/08 00:11:17;;;;;;;14.88;2.03;;;8.20;99.90;;;;;;5073166;28;20169;-77
2022/02/08 00:13:43;;;;;;;16.52;2.63;;;8.00;99.90;;;;;;5073033;28;20248;-79
2022/02/08 00:16:08;;;;;;;12.88;2.28;;;8.00;99.90;;;;;;5075354;28;20171;-79
2022/02/08 00:18:34;;;;;;;7.53;2.15;;;8.00;99.90;;;;;;5077322;28;20171;-78
2022/02/08 00:21:01;;;;;;;9.40;2.70;;;8.20;99.90;;;;;;5080398;28;20167;-77
2022/02/08 00:23:26;;;;;;;18.85;3.05;;;8.30;99.90;;;;;;5087871;28;20183;-80
2022/02/08 00:25:52;;;;;;;16.02;3.10;;;8.40;99.90;;;;;;5100305;28;20201;-80
2022/02/08 00:28:17;;;;;;;18.55;2.97;;;8.50;99.90;;;;;;5087884;28;20752;-78
2022/02/08 00:30:43;;;;;;;10.10;3.10;;;8.50;99.90;;;;;;5079671;28;20647;-77
2022/02/08 00:33:09;;;;;;;13.35;2.58;;;8.40;99.90;;;;;;5077357;28;20204;-76
2022/02/08 00:35:34;;;;;;;16.98;2.53;;;8.30;99.90;;;;;;5076569;28;20202;-77
2022/02/08 00:38:00;;;;;;;11.50;2.15;;;8.30;99.90;;;;;;5076851;28;20162;-77
2022/02/08 00:40:27;;;;;;;15.25;2.75;;;8.60;99.90;;;;;;5058956;28;20649;-78
2022/02/08 00:42:52;;;;;;;29.98;3.55;;;8.80;99.90;;;;;;5077265;28;20190;-76
2022/02/08 00:48:03;;;;;;;5.80;2.53;;;8.40;99.90;;;;;;5077804;28;20850;-89
2022/02/08 00:50:29;;;;;;;9.57;2.90;;;8.40;99.90;;;;;;5090923;28;20166;-78
2022/02/08 00:52:55;;;;;;;15.02;2.75;;;8.40;99.90;;;;;;5093123;28;20209;-77
2022/02/08 00:55:21;;;;;;;9.75;2.80;;;8.50;99.90;;;;;;5092288;28;20214;-78
2022/02/08 00:57:46;;;;;;;8.88;1.65;;;8.60;99.90;;;;;;5087036;28;20162;-78
2022/02/08 01:00:12;;;;;;;13.98;2.10;;;8.60;99.90;;;;;;5078120;28;20171;-78
2022/02/08 01:02:38;;;;;;;21.55;3.13;;;8.70;99.90;;;;;;5078213;28;20205;-78
2022/02/08 01:05:07;;;;;;;12.20;2.47;;;8.70;99.90;;;;;;5058332;28;20181;-78
2022/02/08 01:07:32;;;;;;;4.43;2.05;;;8.80;99.90;;;;;;5075481;28;20170;-79
2022/02/08 01:10:00;;;;;;;10.85;3.47;;;8.70;99.90;;;;;;5075039;28;20185;-78
2022/02/08 01:12:32;;;;;;;12.55;3.05;;;8.80;99.90;;;;;;5075229;28;20233;-79
2022/02/08 01:14:59;;;;;;;21.05;2.38;;;8.90;99.90;;;;;;5075322;28;20203;-79
2022/02/08 01:17:27;;;;;;;9.45;2.42;;;9.00;99.90;;;;;;5075305;28;20178;-84
2022/02/08 01:20:04;;;;;;;8.13;2.85;;;8.90;99.90;;;;;;5075501;28;20290;-80
2022/02/08 01:22:29;;;;;;;10.55;2.95;;;8.90;99.90;;;;;;5075284;28;20538;-78
2022/02/08 01:24:55;;;;;;;8.18;2.50;;;8.70;99.90;;;;;;5075084;28;20187;-88
2022/02/08 01:27:28;;;;;;;13.15;2.30;;;8.70;99.90;;;;;;5073966;28;20171;-78
2022/02/08 01:29:58;;;;;;;11.20;2.53;;;8.60;99.90;;;;;;5075215;28;20579;-78
2022/02/08 01:35:26;;;;;;;6.82;2.35;;;8.60;99.90;;;;;;5075053;28;20214;-81
2022/02/08 01:45:48;;;;;;;12.07;4.95;;;8.60;99.90;;;;;;5075325;28;20239;-79
2022/02/08 01:48:27;;;;;;;21.15;5.38;;;8.60;99.90;;;;;;5076065;28;20705;-78
2022/02/08 01:50:55;;;;;;;20.08;5.57;;;8.60;99.90;;;;;;5076581;28;20166;-78
2022/02/08 01:53:22;;;;;;;13.13;4.22;;;8.40;99.90;;;;;;5075840;28;20186;-80
2022/02/08 01:55:48;;;;;;;13.15;4.28;;;8.50;99.90;;;;;;5075656;28;20260;-77
2022/02/08 01:58:13;;;;;;;21.52;6.28;;;8.50;99.90;;;;;;5076036;28;20166;-78
2022/02/08 02:00:40;;;;;;;17.08;4.85;;;8.50;99.90;;;;;;5059690;28;20223;-78
2022/02/08 02:03:06;;;;;;;15.60;4.32;;;8.50;99.90;;;;;;5074814;28;20545;-81
2022/02/08 02:05:31;;;;;;;15.93;4.78;;;8.60;99.90;;;;;;5075257;28;20253;-79
2022/02/08 02:07:58;;;;;;;22.63;4.13;;;8.60;99.90;;;;;;5057070;28;20202;-79
2022/02/08 02:10:26;;;;;;;14.77;3.90;;;8.60;99.90;;;;;;5074663;28;20166;-90
2022/02/08 02:13:05;;;;;;;20.17;5.05;;;8.60;99.90;;;;;;5075092;28;20186;-78
2022/02/08 02:15:32;;;;;;;18.65;4.13;;;8.80;99.90;;;;;;5074857;28;20223;-82
2022/02/08 02:17:58;;;;;;;12.10;4.53;;;8.90;99.90;;;;;;5075204;28;20503;-85
2022/02/08 02:20:24;;;;;;;23.55;4.70;;;9.00;99.90;;;;;;5074965;28;20178;-81
2022/02/08 02:22:50;;;;;;;14.30;4.00;;;8.90;99.90;;;;;;5075465;28;20236;-77
2022/02/08 02:25:25;;;;;;;16.60;4.18;;;8.80;99.90;;;;;;5075386;28;20650;-88
2022/02/08 02:27:54;;;;;;;24.20;4.80;;;8.80;99.90;;;;;;5075571;28;20171;-76
2022/02/08 02:30:23;;;;;;;17.55;3.70;;;8.90;99.90;;;;;;5058410;28;20178;-83
2022/02/08 02:32:54;;;;;;;10.68;3.63;;;8.90;99.90;;;;;;5085125;28;20185;-78
2022/02/08 02:35:20;;;;;;;10.18;3.30;;;8.90;99.90;;;;;;5081404;28;20543;-80
2022/02/08 02:37:49;;;;;;;11.13;3.05;;;9.00;99.90;;;;;;5079833;28;20170;-78
2022/02/08 02:40:20;;;;;;;10.25;3.80;;;8.80;99.90;;;;;;5078879;28;20201;-78
2022/02/08 02:42:46;;;;;;;11.30;3.35;;;8.80;99.90;;;;;;5080399;28;20193;-85
2022/02/08 02:45:13;;;;;;;21.83;4.57;;;9.00;99.90;;;;;;5059152;28;20210;-77
2022/02/08 02:47:39;;;;;;;8.65;3.50;;;9.10;99.90;;;;;;5076821;28;20162;-93
2022/02/08 02:50:08;;;;;;;14.55;4.28;;;9.30;99.90;;;;;;5075771;28;20181;-77
2022/02/08 02:52:34;;;;;;;18.38;4.15;;;9.20;99.90;;;;;;5081427;28;20191;-77
2022/02/08 02:54:59;;;;;;;14.65;5.10;;;9.10;99.90;;;;;;5085687;28;20198;-79
2022/02/08 02:57:26;;;;;;;11.15;3.47;;;8.90;99.90;;;;;;5097915;28;20185;-79
2022/02/08 03:00:02;;;;;;;18.08;5.35;;;8.90;99.90;;;;;;5064545;28;20277;-77
2022/02/08 03:18:37;;;;;;;12.25;4.25;;;9.00;99.90;;;;;;5073319;28;20173;-84
2022/02/08 03:21:04;;;;;;;18.27;4.20;;;9.20;99.90;;;;;;5073125;28;20201;-77
2022/02/08 03:23:30;;;;;;;18.45;4.03;;;9.20;99.90;;;;;;5072823;28;20185;-78
2022/02/08 03:25:55;;;;;;;14.50;4.57;;;9.20;99.90;;;;;;5073080;28;20190;-77
2022/02/08 03:28:21;;;;;;;14.90;4.65;;;9.30;99.90;;;;;;5073850;28;20181;-78
2022/02/08 03:30:48;;;;;;;7.72;3.53;;;9.30;99.90;;;;;;5074906;28;20740;-77
2022/02/08 03:33:17;;;;;;;14.65;4.20;;;9.20;99.90;;;;;;5074055;28;20182;-80
2022/02/08 03:35:43;;;;;;;10.73;3.90;;;9.30;99.90;;;;;;5074287;28;20198;-78
2022/02/08 03:38:10;;;;;;;17.55;4.95;;;9.30;99.90;;;;;;5074121;28;20159;-81
2022/02/08 03:43:38;;;;;;;11.70;5.05;;;9.00;99.90;;;;;;5075794;28;20198;-92
2022/02/08 03:45:59;;;;;;;11.20;4.38;;;9.00;99.90;;;;;;5072414;28;20182;-80
2022/02/08 03:48:28;;;;;;;7.75;4.07;;;8.90;99.90;;;;;;5057558;28;20193;-89
2022/02/08 03:50:57;;;;;;;8.82;4.35;;;8.90;99.90;;;;;;5074834;28;20680;-78
2022/02/08 03:53:25;;;;;;;6.22;3.92;;;8.80;99.90;;;;;;5074147;28;20190;-92
2022/02/08 03:55:52;;;;;;;8.70;4.63;;;8.80;99.90;;;;;;5055790;28;20213;-85
2022/02/08 03:58:18;;;;;;;10.43;4.68;;;8.90;99.90;;;;;;5056167;28;20159;-79
2022/02/08 04:01:59;;;;;;;11.63;4.72;;;8.90;99.90;;;;;;5074511;28;20169;-80
2022/02/08 04:03:33;;;;;;;14.88;5.18;;;9.00;99.90;;;;;;5063885;28;20194;-78
2022/02/08 04:06:00;;;;;;;10.40;4.22;;;8.90;99.90;;;;;;5074812;28;20166;-78
2022/02/08 04:08:28;;;;;;;9.27;4.85;;;9.00;99.90;;;;;;5074597;28;20177;-93
2022/02/08 04:10:57;;;;;;;12.40;4.88;;;9.00;99.90;;;;;;5076291;28;20171;-87
2022/02/08 04:13:28;;;;;;;12.70;5.03;;;9.00;99.90;;;;;;5073585;28;20182;-80
2022/02/08 04:16:24;;;;;;;15.25;5.38;;;9.00;99.90;;;;;;5074423;28;20189;-77
2022/02/08 04:18:58;;;;;;;11.20;4.63;;;9.00;99.90;;;;;;5074027;28;20167;-92
2022/02/08 04:32:43;;;;;;;9.25;3.95;;;9.10;99.90;;;;;;5074108;28;20232;-78
2022/02/08 04:43:10;;;;;;;8.68;3.92;;;8.90;99.90;;;;;;5073637;28;20194;-80
2022/02/08 04:45:46;;;;;;;8.50;4.28;;;9.00;99.90;;;;;;5076210;28;20163;-77
2022/02/08 04:51:10;;;;;;;5.32;3.75;;;9.30;99.90;;;;;;5073872;28;20211;-83
2022/02/08 04:53:42;;;;;;;8.80;4.32;;;9.20;99.90;;;;;;5055812;28;20281;-79
2022/02/08 04:56:28;;;;;;;6.97;4.20;;;9.20;99.90;;;;;;5056395;28;20186;-78
2022/02/08 04:59:09;;;;;;;9.18;4.68;;;9.20;99.90;;;;;;5074812;28;20177;-77
2022/02/08 05:44:59;;;;;;;8.60;4.65;;;9.70;99.90;;;;;;5046465;28;20576;-78
2022/02/08 05:47:26;;;;;;;7.07;4.88;;;9.80;99.90;;;;;;5077451;28;20159;-77
2022/02/08 05:50:04;;;;;;;5.80;4.18;;;9.70;99.90;;;;;;5076084;28;20154;-78
2022/02/08 05:54:56;;;;;;;6.47;4.28;;;9.60;99.90;;;;;;5076491;28;20214;-78
2022/02/08 05:57:22;;;;;;;7.38;4.63;;;9.60;99.90;;;;;;5058652;28;20223;-78
2022/02/08 05:59:49;;;;;;;5.47;4.55;;;9.70;99.90;;;;;;5075956;28;20155;-78
2022/02/08 06:02:15;;;;;;;5.97;4.72;;;9.80;99.90;;;;;;5075465;28;20196;-79
2022/02/08 06:04:43;;;;;;;10.85;4.65;;;9.90;99.90;;;;;;5076602;28;20249;-78
2022/02/08 06:07:11;;;;;;;13.98;5.63;;;9.80;99.90;;;;;;5076080;28;20169;-80
2022/02/08 06:09:42;;;;;;;10.65;5.65;;;9.70;99.90;;;;;;5079188;28;20171;-80
2022/02/08 06:12:08;;;;;;;9.27;5.60;;;9.70;99.90;;;;;;5082362;28;20174;-83
2022/02/08 06:14:35;;;;;;;8.77;6.43;;;9.50;99.90;;;;;;5074951;28;20202;-78
2022/02/08 06:17:01;;;;;;;8.55;6.88;;;9.50;99.90;;;;;;5058156;28;20166;-78
2022/02/08 06:19:27;;;;;;;12.18;6.88;;;9.40;99.90;;;;;;5075790;28;20241;-78
2022/02/08 06:21:52;;;;;;;16.27;6.95;;;9.50;99.90;;;;;;5075431;28;20187;-80
2022/02/08 06:24:18;;;;;;;15.18;7.03;;;9.50;99.90;;;;;;5075373;28;21301;-85
2022/02/08 06:26:44;;;;;;;9.23;7.03;;;9.60;99.90;;;;;;5076749;28;20167;-77
2022/02/08 06:29:16;;;;;;;12.52;8.02;;;9.70;99.90;;;;;;5075805;28;20175;-79
2022/02/08 06:31:44;;;;;;;11.90;7.07;;;9.60;99.90;;;;;;5075699;28;20163;-78
2022/02/08 06:34:10;;;;;;;11.65;7.65;;;9.70;99.90;;;;;;5075394;28;20277;-77
2022/02/08 06:36:36;;;;;;;14.27;8.15;;;9.80;99.90;;;;;;5075376;28;20178;-77
2022/02/08 06:39:03;;;;;;;22.10;8.85;;;9.70;99.90;;;;;;5075767;28;20166;-79
2022/02/08 06:41:29;;;;;;;11.00;6.97;;;9.70;99.90;;;;;;5075527;28;20194;-84
2022/02/08 06:43:55;;;;;;;13.20;8.07;;;9.60;99.90;;;;;;5075496;28;20194;-80
2022/02/08 06:46:20;;;;;;;14.13;7.75;;;9.60;99.90;;;;;;5075171;28;20171;-79
2022/02/08 06:48:46;;;;;;;15.30;6.78;;;9.70;99.90;;;;;;5074994;28;20196;-78
2022/02/08 06:51:11;;;;;;;15.32;7.05;;;9.70;99.90;;;;;;5074976;28;20159;-77
2022/02/08 06:53:37;;;;;;;12.77;6.70;;;9.70;99.90;;;;;;5074409;28;20182;-82
2022/02/08 06:56:03;;;;;;;13.75;7.05;;;9.80;99.90;;;;;;5056256;28;20175;-82
2022/02/08 06:58:42;;;;;;;14.02;6.20;;;9.80;99.90;;;;;;5073516;28;20646;-80
2022/02/08 07:01:07;;;;;;;7.47;6.05;;;9.80;99.90;;;;;;5073554;28;20193;-78
2022/02/08 07:03:33;;;;;;;12.75;5.60;;;9.90;99.90;;;;;;5073737;28;20309;-79
2022/02/08 07:05:58;;;;;;;6.57;5.90;;;10.00;99.90;;;;;;5073764;28;20163;-79
2022/02/08 07:08:24;;;;;;;7.97;6.45;;;10.10;99.90;;;;;;5055431;28;20171;-78
2022/02/08 07:10:50;;;;;;;6.53;5.68;;;10.20;99.90;;;;;;5074100;28;20155;-78
2022/02/08 07:13:16;;;;;;;7.43;5.30;;;10.20;99.90;;;;;;5072528;28;20543;-78
2022/02/08 07:15:41;;;;;;;10.75;5.28;;;10.20;99.90;;;;;;5072610;28;20213;-79
2022/02/08 07:18:07;;;;;;;7.57;5.93;;;10.10;99.90;;;;;;5072907;28;20634;-78
2022/02/08 07:20:34;;;;;;;12.10;5.43;;;9.80;99.90;;;;;;5073127;28;20568;-80
2022/02/08 07:22:59;;;;;;;10.32;5.05;;;9.90;99.90;;;;;;5072759;28;20194;-79
2022/02/08 07:25:25;;;;;;;7.95;5.15;;;10.10;99.90;;;;;;5071991;28;20547;-79
2022/02/08 07:27:51;;;;;;;8.70;4.35;;;10.20;99.90;;;;;;5072772;28;20168;-79
2022/02/08 07:30:16;;;;;;;4.00;3.20;;;10.20;99.90;;;;;;5072806;28;20170;-78
2022/02/08 07:32:43;;;;;;;9.80;4.07;;;10.20;99.90;;;;;;5054265;28;20190;-79
2022/02/08 07:38:09;;;;;;;7.03;3.47;;;10.10;99.90;;;;;;5073059;28;20170;-78
2022/02/08 07:43:03;;;;;;;5.47;3.80;;;10.20;99.90;;;;;;5072408;28;20186;-76
2022/02/08 07:45:28;;;;;;;3.85;3.08;;;10.30;99.90;;;;;;5072629;28;20174;-79
2022/02/08 07:47:55;;;;;;;7.88;2.83;;;10.30;99.90;;;;;;5073019;28;20166;-84
2022/02/08 07:50:22;;;;;;;5.45;3.08;;;10.30;99.90;;;;;;5072861;28;20167;-77
2022/02/08 07:52:50;;;;;;;6.72;4.00;;;10.40;99.90;;;;;;5072731;28;20182;-80
2022/02/08 07:55:19;;;;;;;10.55;4.00;;;10.40;99.90;;;;;;5072233;28;20198;-77
2022/02/08 07:57:45;;;;;;;4.95;3.10;;;10.50;99.90;;;;;;5077334;28;20598;-77
2022/02/08 08:00:13;;;;;;;5.95;3.47;;;10.40;99.90;;;;;;5085522;28;20178;-78
2022/02/08 08:02:39;;;;;;;4.63;3.15;;;10.20;99.90;;;;;;5096677;28;20238;-79
2022/02/08 08:05:07;;;;;;;10.00;3.88;;;10.20;99.90;;;;;;5074051;28;20307;-78
2022/02/08 08:07:33;;;;;;;6.43;3.65;;;10.30;99.90;;;;;;5072406;28;20515;-86
2022/02/08 08:10:01;;;;;;;7.88;3.60;;;10.40;99.90;;;;;;5072815;28;20177;-78
2022/02/08 08:12:28;;;;;;;5.72;3.40;;;10.50;99.90;;;;;;5072920;28;20206;-80
2022/02/08 08:14:55;;;;;;;4.05;3.67;;;10.60;99.90;;;;;;5054858;28;20722;-78
2022/02/08 08:19:57;;;;;;;7.60;3.47;;;10.50;99.90;;;;;;5072341;28;20631;-79
2022/02/08 08:22:23;;;;;;;7.15;3.30;;;10.50;99.90;;;;;;5072061;28;20546;-80
2022/02/08 08:24:49;;;;;;;5.50;2.85;;;10.40;99.90;;;;;;5063685;28;20194;-78
2022/02/08 08:27:15;;;;;;;8.63;2.85;;;10.60;99.90;;;;;;5051478;28;20167;-91
2022/02/08 08:29:41;;;;;;;5.53;2.28;;;10.50;99.90;;;;;;5052303;28;20175;-78
2022/02/08 08:32:08;;;;;;;8.38;2.72;;;10.70;99.90;;;;;;5052219;28;20170;-86
2022/02/08 08:34:35;;;;;;;4.93;2.67;;;10.60;99.90;;;;;;5052191;28;20203;-78
2022/02/08 08:37:01;;;;;;;10.40;2.47;;;10.70;99.90;;;;;;5053873;28;20168;-81
2022/02/08 08:39:34;;;;;;;6.30;2.63;;;10.80;99.90;;;;;;5056073;28;20172;-82
2022/02/08 08:49:57;;;;;;;4.68;2.33;;;10.70;99.90;;;;;;5056739;28;20182;-86
2022/02/08 08:52:31;;;;;;;7.03;2.75;;;10.80;99.90;;;;;;5056436;28;20187;-87
2022/02/08 08:54:58;;;;;;;8.27;2.45;;;10.80;99.90;;;;;;5054383;28;20796;-89
2022/02/08 08:57:25;;;;;;;6.85;3.22;;;10.80;99.90;;;;;;5058353;28;20182;-79
2022/02/08 08:59:51;;;;;;;6.35;2.25;;;10.70;99.90;;;;;;5074799;28;20171;-82
2022/02/08 09:02:16;;;;;;;5.00;2.35;;;10.80;99.90;;;;;;5075305;28;20183;-82
2022/02/08 09:04:44;;;;;;;7.05;2.10;;;10.90;99.90;;;;;;5076215;28;20502;-84
2022/02/08 09:07:10;;;;;;;8.05;2.40;;;11.00;99.90;;;;;;5059505;28;20666;-78
2022/02/08 09:09:39;;;;;;;5.32;1.98;;;11.10;99.90;;;;;;5067163;28;20179;-85
2022/02/08 09:12:17;;;;;;;4.45;2.30;;;11.10;99.90;;;;;;5071120;28;20239;-87
2022/02/08 09:14:55;;;;;;;10.65;1.92;;;11.20;99.90;;;;;;5056989;28;20213;-87
2022/02/08 09:20:25;;;;;;;5.22;1.42;;;11.10;99.90;;;;;;5076269;28;20181;-79
2022/02/08 09:28:39;;;;;;;9.13;1.35;;;11.00;99.90;;;;;;5084202;28;20170;-83
2022/02/08 09:31:06;;;;;;;3.35;1.25;;;11.00;99.90;;;;;;5094374;28;20161;-80
2022/02/08 09:33:32;;;;;;;6.72;1.15;;;11.00;99.90;;;;;;5072771;28;20205;-81
2022/02/08 09:35:58;;;;;;;2.47;1.10;;;11.10;99.90;;;;;;5093582;28;20190;-78
2022/02/08 09:38:29;;;;;;;4.97;1.05;;;11.10;99.90;;;;;;5085798;28;20170;-79
2022/02/08 09:40:57;;;;;;;1.50;1.00;;;11.10;99.90;;;;;;5083606;28;20163;-86
2022/02/08 09:43:22;;;;;;;2.53;1.60;;;11.20;99.90;;;;;;5075858;28;20187;-83
2022/02/08 09:45:50;;;;;;;2.78;1.05;;;11.20;99.90;;;;;;5074936;28;20170;-79
2022/02/08 09:48:29;;;;;;;2.55;0.95;;;11.30;99.90;;;;;;5074930;28;20737;-86
2022/02/08 09:50:56;;;;;;;3.95;0.90;;;11.30;99.90;;;;;;5076382;28;20721;-83
2022/02/08 09:53:31;;;;;;;7.20;0.77;;;11.40;99.90;;;;;;5075523;28;20187;-79
2022/02/08 09:55:57;;;;;;;1.83;1.00;;;11.40;99.90;;;;;;5074944;28;20213;-85
2022/02/08 09:58:23;;;;;;;6.50;0.90;;;11.40;99.90;;;;;;5074903;28;20623;-89
2022/02/08 10:00:49;;;;;;;3.28;0.93;;;11.40;99.90;;;;;;5074873;28;20194;-78
2022/02/08 10:03:17;;;;;;;3.10;1.13;;;11.40;99.90;;;;;;5075080;28;20237;-78
2022/02/08 10:05:49;;;;;;;4.35;1.02;;;11.40;99.90;;;;;;5083863;28;20242;-78
2022/02/08 10:08:15;;;;;;;6.43;0.80;;;11.20;99.90;;;;;;5094234;28;20219;-81
2022/02/08 10:10:42;;;;;;;2.22;0.93;;;11.40;99.90;;;;;;5092318;28;20174;-86
2022/02/08 10:24:05;;;;;;;2.83;1.60;;;11.70;99.90;;;;;;5076437;28;20194;-78
2022/02/08 10:29:28;;;;;;;1.10;0.90;;;11.80;99.90;;;;;;5074217;28;20182;-83
2022/02/08 10:40:01;;;;;;;3.80;0.88;;;12.30;99.90;;;;;;5074829;28;20213;-87
2022/02/08 10:42:29;;;;;;;9.25;1.13;;;12.20;99.90;;;;;;5073507;28;20185;-78
2022/02/08 10:44:56;;;;;;;1.75;0.90;;;12.20;99.90;;;;;;5073515;28;20177;-80
2022/02/08 10:47:41;;;;;;;2.58;1.20;;;12.20;99.90;;;;;;5073915;28;20630;-78
2022/02/08 10:50:09;;;;;;;6.78;1.30;;;12.30;99.90;;;;;;5074199;28;20193;-79
2022/02/08 10:52:37;;;;;;;4.75;0.80;;;12.20;99.90;;;;;;5073944;28;20261;-82
2022/02/08 11:03:07;;;;;;;1.35;0.80;;;12.30;99.90;;;;;;5073161;28;20186;-78
2022/02/08 11:05:42;;;;;;;1.70;1.13;;;12.40;99.90;;;;;;5073173;28;20160;-78
2022/02/08 11:08:19;;;;;;;4.05;1.10;;;12.30;99.90;;;;;;5073571;28;20164;-81
2022/02/08 11:13:31;;;;;;;4.80;1.33;;;12.40;99.90;;;;;;5073238;28;20818;-80
2022/02/08 11:16:21;;;;;;;1.55;1.23;;;12.50;99.90;;;;;;5073188;28;20609;-79
2022/02/08 11:19:22;;;;;;;8.75;1.73;;;12.50;99.90;;;;;;5073355;28;20163;-78
2022/02/08 11:22:05;;;;;;;2.17;0.90;;;12.60;99.90;;;;;;5072989;28;20166;-79
2022/02/08 11:24:41;;;;;;;1.70;1.20;;;12.60;99.90;;;;;;5073042;28;20583;-79
2022/02/08 11:27:10;;;;;;;5.88;0.90;;;12.70;99.90;;;;;;5073168;28;20154;-77
2022/02/08 11:29:42;;;;;;;5.35;1.55;;;12.60;99.90;;;;;;5073015;28;20234;-77
2022/02/08 11:32:30;;;;;;;6.30;1.35;;;12.60;99.90;;;;;;5055458;28;20173;-78
2022/02/08 11:46:54;;;;;;;2.67;1.17;;;12.60;99.90;;;;;;5073226;28;20536;-77
2022/02/08 11:49:36;;;;;;;9.68;1.40;;;12.70;99.90;;;;;;5075884;28;20170;-89
2022/02/08 11:55:06;;;;;;;7.13;1.40;;;12.70;99.90;;;;;;5073442;28;20264;-77
2022/02/08 12:06:03;;;;;;;2.08;1.10;;;12.90;99.90;;;;;;5088515;28;20174;-78
2022/02/08 12:08:30;;;;;;;1.65;0.68;;;13.00;99.90;;;;;;5073365;28;20174;-78
2022/02/08 12:11:31;;;;;;;1.20;0.80;;;13.20;99.90;;;;;;5079354;28;20157;-77
2022/02/08 12:56:49;;;;;;;3.03;1.45;;;12.90;99.90;;;;;;5076458;28;20185;-77
2022/02/08 14:06:32;;;;;;;2.15;1.00;;;12.90;99.90;;;;;;5077547;28;20175;-81
2022/02/08 14:09:21;;;;;;;2.78;1.17;;;12.90;99.90;;;;;;5077447;28;20175;-87
2022/02/08 14:19:37;;;;;;;4.78;1.15;;;12.80;99.90;;;;;;5056542;28;20182;-78
2022/02/08 14:30:19;;;;;;;0.82;0.70;;;12.60;99.90;;;;;;5000290;28;20272;-78
2022/02/08 14:33:01;;;;;;;8.45;1.55;;;12.60;99.90;;;;;;5055203;28;20187;-78
2022/02/08 15:11:12;;;;;;;4.05;1.20;;;11.90;99.90;;;;;;5074416;28;20202;-84
2022/02/08 15:13:20;;;;;;;1.45;1.00;;;11.90;99.90;;;;;;5064980;28;20194;-91
2022/02/08 15:16:07;;;;;;;4.25;1.60;;;12.00;99.90;;;;;;5073694;28;20792;-78
2022/02/08 15:18:34;;;;;;;2.40;1.23;;;12.10;99.90;;;;;;5073629;28;20282;-78
2022/02/08 15:21:00;;;;;;;1.83;1.13;;;12.20;99.90;;;;;;5073891;28;20169;-95
2022/02/08 15:23:27;;;;;;;5.18;1.13;;;12.30;99.90;;;;;;5073346;28;20183;-81
2022/02/08 15:25:56;;;;;;;6.03;1.10;;;12.30;99.90;;;;;;5078403;28;20183;-77
2022/02/08 15:28:29;;;;;;;2.45;1.10;;;12.30;99.90;;;;;;5075231;28;20171;-78
2022/02/08 15:30:56;;;;;;;1.50;1.02;;;12.20;99.90;;;;;;5076545;28;20238;-79
2022/02/08 15:33:23;;;;;;;8.13;1.60;;;12.10;99.90;;;;;;5075568;28;20268;-77
2022/02/08 15:35:49;;;;;;;5.35;1.65;;;12.10;99.90;;;;;;5057022;28;20202;-89
2022/02/08 15:38:15;;;;;;;7.03;1.77;;;12.10;99.90;;;;;;5075649;28;20158;-82
2022/02/08 15:40:41;;;;;;;4.70;1.52;;;12.10;99.90;;;;;;5074865;28;20172;-85
2022/02/08 15:43:08;;;;;;;4.18;1.30;;;12.30;99.90;;;;;;5074734;28;20198;-89
2022/02/08 15:45:44;;;;;;;3.95;1.17;;;12.10;99.90;;;;;;5073561;28;20224;-78
2022/02/08 15:48:13;;;;;;;2.55;1.00;;;12.20;99.90;;;;;;5073906;28;20162;-83
2022/02/08 15:50:53;;;;;;;4.88;1.40;;;12.20;99.90;;;;;;5073137;28;20155;-78
2022/02/08 15:58:23;;;;;;;1.83;1.00;;;12.20;99.90;;;;;;5074554;28;20171;-79
2022/02/08 16:08:41;;;;;;;4.60;1.70;;;11.80;99.90;;;;;;5058711;28;20182;-79
2022/02/08 16:11:31;;;;;;;4.63;1.65;;;12.00;99.90;;;;;;5077654;28;20166;-89
2022/02/08 16:14:00;;;;;;;9.30;2.90;;;12.10;99.90;;;;;;5072462;28;20183;-87
2022/02/08 16:49:01;;;;;;;3.35;1.30;;;11.60;99.90;;;;;;5072098;28;20328;-88
2022/02/08 16:56:10;;;;;;;2.28;1.33;;;11.60;99.90;;;;;;5052937;28;20690;-80
2022/02/08 16:58:42;;;;;;;1.95;1.60;;;11.70;99.90;;;;;;5054156;28;20267;-80
2022/02/08 17:01:12;;;;;;;2.72;1.48;;;11.70;99.90;;;;;;5066064;28;20170;-77
2022/02/08 17:03:45;;;;;;;4.10;1.98;;;11.70;99.90;;;;;;5057706;28;20252;-79
2022/02/08 17:06:12;;;;;;;6.30;1.50;;;11.80;99.90;;;;;;5076500;28;20204;-86
2022/02/08 17:08:38;;;;;;;1.80;1.33;;;11.80;99.90;;;;;;5076129;28;20181;-81
2022/02/08 17:11:04;;;;;;;2.78;0.93;;;11.90;99.90;;;;;;5074526;28;20175;-77
2022/02/08 17:16:18;;;;;;;3.35;1.15;;;11.80;99.90;;;;;;5084044;28;20214;-77
2022/02/08 17:19:12;;;;;;;8.90;2.13;;;12.00;99.90;;;;;;5082641;28;20195;-78
2022/02/08 17:45:57;;;;;;;5.07;1.55;;;11.80;99.90;;;;;;5074856;28;20170;-82
2022/02/08 17:48:23;;;;;;;2.85;1.48;;;11.90;99.90;;;;;;5074827;28;20171;-86
2022/02/08 17:50:49;;;;;;;4.18;1.52;;;11.80;99.90;;;;;;5074647;28;20170;-78
2022/02/08 17:53:18;;;;;;;2.08;1.40;;;11.90;99.90;;;;;;5074766;28;20190;-77
2022/02/08 17:55:44;;;;;;;2.88;1.58;;;11.90;99.90;;;;;;5074791;28;20400;-79
2022/02/08 17:58:09;;;;;;;8.77;1.25;;;11.80;99.90;;;;;;5074527;28;20163;-79
2022/02/08 18:00:35;;;;;;;2.47;1.40;;;11.70;99.90;;;;;;5074778;28;20198;-78
2022/02/08 18:03:04;;;;;;;2.38;1.50;;;11.70;99.90;;;;;;5074405;28;20179;-78
2022/02/08 18:05:30;;;;;;;4.72;1.90;;;11.80;99.90;;;;;;5074962;28;20171;-78
2022/02/08 18:07:56;;;;;;;1.88;1.45;;;11.80;99.90;;;;;;5077801;28;20161;-88
2022/02/08 18:10:24;;;;;;;1.95;1.30;;;11.60;99.90;;;;;;5075640;28;20256;-82
2022/02/08 18:12:53;;;;;;;3.40;1.65;;;11.60;99.90;;;;;;5090541;28;20178;-78
2022/02/08 18:15:20;;;;;;;1.42;1.10;;;11.50;99.90;;;;;;5090096;28;20198;-77
2022/02/08 18:17:52;;;;;;;3.15;1.70;;;11.50;99.90;;;;;;5088722;28;20163;-79
2022/02/08 18:22:55;;;;;;;7.30;2.47;;;11.50;99.90;;;;;;5080712;28;20194;-87
2022/02/08 19:03:19;;;;;;;1.77;1.50;;;11.70;99.90;;;;;;5055579;28;20171;-90
2022/02/08 19:08:54;;;;;;;7.50;1.67;;;11.70;99.90;;;;;;5055849;28;20206;-89
2022/02/08 19:16:39;;;;;;;1.85;1.27;;;11.50;99.90;;;;;;5055625;28;20210;-89
2022/02/08 19:21:45;;;;;;;1.75;1.63;;;11.70;99.90;;;;;;5053885;28;20611;-87
2022/02/08 19:24:19;;;;;;;1.55;1.45;;;11.70;99.90;;;;;;5055058;28;20236;-87
2022/02/08 19:26:48;;;;;;;2.25;1.95;;;11.70;99.90;;;;;;5059785;28;20157;-86
2022/02/08 19:29:14;;;;;;;3.25;2.10;;;11.60;99.90;;;;;;5073306;28;20173;-86
2022/02/08 19:31:41;;;;;;;2.90;2.33;;;11.50;99.90;;;;;;5073131;28;20623;-87
2022/02/08 19:34:07;;;;;;;4.10;2.33;;;11.50;99.90;;;;;;5054841;28;20187;-84
2022/02/08 19:36:33;;;;;;;3.42;2.10;;;11.30;99.90;;;;;;5075384;28;20261;-90
2022/02/08 19:39:02;;;;;;;1.73;1.63;;;11.40;99.90;;;;;;5056563;28;20521;-88
2022/02/08 19:41:29;;;;;;;1.98;1.60;;;11.60;99.90;;;;;;5075848;28;20566;-94
2022/02/08 19:43:55;;;;;;;1.80;1.70;;;11.80;99.90;;;;;;5074810;28;20716;-93
2022/02/08 19:46:21;;;;;;;3.85;2.30;;;11.90;99.90;;;;;;5075954;28;20491;-93
2022/02/08 19:48:47;;;;;;;4.90;1.92;;;11.90;99.90;;;;;;5075119;28;20259;-92
2022/02/08 19:51:13;;;;;;;5.15;2.28;;;11.80;99.90;;;;;;5075189;28;20654;-91
2022/02/08 19:53:39;;;;;;;2.13;1.55;;;11.70;99.90;;;;;;5074935;28;20185;-95
2022/02/08 19:56:45;;;;;;;2.75;2.05;;;11.70;99.90;;;;;;5075119;28;20238;-94
2022/02/08 19:58:59;;;;;;;1.65;1.55;;;11.80;99.90;;;;;;5070020;28;20175;-76
2022/02/08 20:01:30;;;;;;;2.08;1.80;;;11.70;99.90;;;;;;5071203;28;20191;-87
2022/02/08 20:04:04;;;;;;;2.92;1.70;;;11.70;99.90;;;;;;5060018;28;20747;-85
2022/02/08 20:06:34;;;;;;;2.03;1.52;;;11.50;99.90;;;;;;5053988;28;20175;-83
2022/02/08 20:09:03;;;;;;;3.40;1.88;;;11.50;99.90;;;;;;5046389;28;20194;-78
2022/02/08 20:11:30;;;;;;;7.13;1.40;;;11.40;99.90;;;;;;5044021;28;20172;-91
2022/02/08 20:13:57;;;;;;;2.35;1.40;;;11.30;99.90;;;;;;5067650;28;20206;-91
2022/02/08 20:16:27;;;;;;;5.97;1.30;;;11.30;99.90;;;;;;5071084;28;20206;-78
2022/02/08 20:18:56;;;;;;;1.48;1.20;;;11.40;99.90;;;;;;5052104;28;20174;-83
2022/02/08 20:21:24;;;;;;;1.23;1.13;;;11.30;99.90;;;;;;5054291;28;20182;-78
2022/02/08 20:23:50;;;;;;;9.18;1.20;;;11.30;99.90;;;;;;5052536;28;20533;-77
2022/02/08 20:26:16;;;;;;;2.08;1.50;;;11.30;99.90;;;;;;5053140;28;20182;-77
2022/02/08 20:28:54;;;;;;;1.10;1.10;;;11.20;99.90;;;;;;5053521;28;20163;-77
2022/02/08 20:31:20;;;;;;;4.10;1.35;;;11.00;99.90;;;;;;5053864;28;20186;-77
2022/02/08 20:33:49;;;;;;;1.30;1.20;;;10.90;99.90;;;;;;5056227;28;20190;-78
2022/02/08 20:36:16;;;;;;;1.67;1.30;;;10.70;99.90;;;;;;5058048;28;20203;-78
2022/02/08 20:38:45;;;;;;;1.65;1.55;;;10.70;99.90;;;;;;5039233;28;20175;-77
2022/02/08 20:41:12;;;;;;;3.17;2.03;;;10.70;99.90;;;;;;5058138;28;20163;-78
2022/02/08 20:43:39;;;;;;;4.05;1.80;;;10.80;99.90;;;;;;5057659;28;20617;-87
2022/02/08 20:46:06;;;;;;;2.53;1.63;;;10.80;99.90;;;;;;5056915;28;20194;-79
2022/02/08 20:48:33;;;;;;;1.60;1.50;;;10.80;99.90;;;;;;5057168;28;20159;-77